createdAt,value
2022-08-18T00:00:45.650Z,5.03
2022-08-18T00:04:34.858Z,5.60
2022-08-18T00:07:59.364Z,4.97
2022-08-18T00:11:26.039Z,5.20
2022-08-18T00:14:52.565Z,5.60
2022-08-18T00:18:18.851Z,6.73
2022-08-18T00:21:44.923Z,7.30
2022-08-18T00:25:11.905Z,8.95
2022-08-18T00:28:37.932Z,8.07
2022-08-18T00:32:14.682Z,9.07
2022-08-18T00:35:40.532Z,9.32
2022-08-18T00:39:07.494Z,9.10
2022-08-18T00:42:33.824Z,8.88
2022-08-18T00:46:06.411Z,8.98
2022-08-18T00:49:32.362Z,9.43
2022-08-18T00:53:03.399Z,8.43
2022-08-18T00:56:33.947Z,8.43
2022-08-18T01:00:13.528Z,7.93
2022-08-18T01:03:44.172Z,6.80
2022-08-18T01:07:22.071Z,4.18
2022-08-18T01:14:16.394Z,4.30
2022-08-18T01:18:01.884Z,4.25
2022-08-18T01:21:52.519Z,3.35
2022-08-18T01:25:42.563Z,3.88
2022-08-18T01:29:18.716Z,3.08
2022-08-18T01:32:47.394Z,3.75
2022-08-18T01:36:19.280Z,4.13
2022-08-18T01:41:23.169Z,3.75
2022-08-18T01:43:36.380Z,3.88
2022-08-18T01:47:02.556Z,3.60
2022-08-18T01:50:28.490Z,3.50
2022-08-18T01:53:54.606Z,3.80
2022-08-18T01:57:21.234Z,3.60
2022-08-18T02:00:47.189Z,3.60
2022-08-18T02:04:34.587Z,3.53
2022-08-18T02:08:03.039Z,3.72
2022-08-18T02:11:29.200Z,3.88
2022-08-18T02:14:55.097Z,3.70
2022-08-18T02:18:25.713Z,3.55
2022-08-18T02:25:38.585Z,3.65
2022-08-18T02:29:04.961Z,3.53
2022-08-18T02:32:32.078Z,3.58
2022-08-18T02:35:57.890Z,3.30
2022-08-18T02:39:23.810Z,2.78
2022-08-18T02:42:50.312Z,3.40
2022-08-18T02:46:16.285Z,3.43
2022-08-18T02:49:42.160Z,3.22
2022-08-18T02:53:08.766Z,3.45
2022-08-18T02:56:41.154Z,3.23
2022-08-18T03:00:13.302Z,3.00
2022-08-18T03:03:39.290Z,2.92
2022-08-18T03:07:06.887Z,3.08
2022-08-18T03:10:34.202Z,3.03
2022-08-18T03:17:26.953Z,2.70
2022-08-18T03:20:52.898Z,3.08
2022-08-18T03:24:22.979Z,2.83
2022-08-18T03:27:51.031Z,3.20
2022-08-18T03:31:17.943Z,2.65
2022-08-18T03:34:44.574Z,3.00
2022-08-18T03:38:14.187Z,3.30
2022-08-18T03:41:58.085Z,2.65
2022-08-18T03:45:28.719Z,2.78
2022-08-18T03:48:57.405Z,3.30
2022-08-18T03:52:24.169Z,3.03
2022-08-18T03:55:50.036Z,3.35
2022-08-18T03:59:19.416Z,3.03
2022-08-18T04:02:46.280Z,3.47
2022-08-18T04:06:16.975Z,3.42
2022-08-18T04:09:57.007Z,2.92
2022-08-18T04:13:22.969Z,3.53
2022-08-18T04:16:49.526Z,3.45
2022-08-18T04:20:16.776Z,3.37
2022-08-18T04:23:44.371Z,3.30
2022-08-18T04:27:11.787Z,3.20
2022-08-18T04:34:04.057Z,3.25
2022-08-18T04:37:39.554Z,3.10
2022-08-18T04:41:08.753Z,2.90
2022-08-18T04:44:38.142Z,3.53
2022-08-18T04:48:04.935Z,2.50
2022-08-18T04:52:26.665Z,2.80
2022-08-18T04:55:18.001Z,3.40
2022-08-18T04:58:43.866Z,2.83
2022-08-18T05:02:14.524Z,2.88
2022-08-18T05:05:41.941Z,2.90
2022-08-18T05:09:09.590Z,3.28
2022-08-18T05:12:36.766Z,2.55
2022-08-18T05:16:16.779Z,2.78
2022-08-18T05:19:47.621Z,2.60
2022-08-18T05:23:17.231Z,2.88
2022-08-18T05:26:43.310Z,2.67
2022-08-18T05:30:09.981Z,2.97
2022-08-18T05:33:40.604Z,3.08
2022-08-18T05:37:40.158Z,4.07
2022-08-18T05:41:08.352Z,2.80
2022-08-18T05:44:43.125Z,2.90
2022-08-18T05:48:14.507Z,3.35
2022-08-18T05:52:02.264Z,2.75
2022-08-18T05:56:00.598Z,2.90
2022-08-18T05:59:36.055Z,3.28
2022-08-18T06:03:17.129Z,3.47
2022-08-18T06:06:48.187Z,3.00
2022-08-18T06:10:20.093Z,2.83
2022-08-18T06:13:47.162Z,3.03
2022-08-18T06:17:37.509Z,3.28
2022-08-18T06:21:29.742Z,3.40
2022-08-18T06:25:04.537Z,3.47
2022-08-18T06:29:08.577Z,3.30
2022-08-18T06:32:54.179Z,3.45
2022-08-18T06:36:50.112Z,3.30
2022-08-18T06:40:23.446Z,2.97
2022-08-18T06:44:10.173Z,3.53
2022-08-18T06:47:41.837Z,3.63
2022-08-18T06:51:15.202Z,3.50
2022-08-18T06:55:14.245Z,3.22
2022-08-18T06:59:18.835Z,3.83
2022-08-18T07:02:49.689Z,3.63
2022-08-18T07:06:30.923Z,3.65
2022-08-18T07:10:15.195Z,3.85
2022-08-18T07:13:42.716Z,4.05
2022-08-18T07:17:43.591Z,3.58
2022-08-18T07:21:38.333Z,4.65
2022-08-18T07:25:07.377Z,3.30
2022-08-18T07:28:45.256Z,3.55
2022-08-18T07:32:20.902Z,4.05
2022-08-18T07:35:57.402Z,3.63
2022-08-18T07:40:11.351Z,4.20
2022-08-18T07:43:46.956Z,3.63
2022-08-18T07:47:19.826Z,4.15
2022-08-18T07:50:58.886Z,4.25
2022-08-18T07:55:00.223Z,4.30
2022-08-18T07:58:47.185Z,3.38
2022-08-18T08:02:55.282Z,3.92
2022-08-18T08:06:35.236Z,4.28
2022-08-18T08:10:25.332Z,3.97
2022-08-18T08:14:16.756Z,3.90
2022-08-18T08:18:20.299Z,3.75
2022-08-18T08:22:04.530Z,4.00
2022-08-18T08:26:21.429Z,3.67
2022-08-18T08:30:01.758Z,4.57
2022-08-18T08:33:36.423Z,3.17
2022-08-18T08:37:21.382Z,3.40
2022-08-18T08:41:01.093Z,3.63
2022-08-18T08:44:44.986Z,3.38
2022-08-18T08:48:38.061Z,3.05
2022-08-18T08:52:38.830Z,3.03
2022-08-18T08:56:09.539Z,3.33
2022-08-18T08:59:37.450Z,3.22
2022-08-18T09:03:30.556Z,3.40
2022-08-18T09:07:09.387Z,2.90
2022-08-18T09:11:05.581Z,3.25
2022-08-18T09:14:46.335Z,2.80
2022-08-18T09:18:30.877Z,2.70
2022-08-18T09:22:08.929Z,3.00
2022-08-18T09:25:40.242Z,2.90
2022-08-18T09:29:23.576Z,2.88
2022-08-18T09:33:20.722Z,2.83
2022-08-18T09:37:12.535Z,2.50
2022-08-18T09:41:08.831Z,2.92
2022-08-18T09:44:48.716Z,3.28
2022-08-18T09:48:47.490Z,3.00
2022-08-18T09:52:24.192Z,3.20
2022-08-18T09:56:11.700Z,3.10
2022-08-18T10:03:31.073Z,2.92
2022-08-18T10:12:03.919Z,2.53
2022-08-18T10:16:13.349Z,3.03
2022-08-18T10:20:26.467Z,3.67
2022-08-18T10:28:00.896Z,3.10
2022-08-18T10:31:55.746Z,2.50
2022-08-18T10:35:42.119Z,2.60
2022-08-18T10:39:24.978Z,3.50
2022-08-18T10:43:45.588Z,2.85
2022-08-18T10:47:34.250Z,2.83
2022-08-18T10:51:27.602Z,2.83
2022-08-18T10:55:18.179Z,3.08
2022-08-18T10:59:05.408Z,2.65
2022-08-18T11:02:44.357Z,2.80
2022-08-18T11:06:21.255Z,2.70
2022-08-18T11:10:13.036Z,2.53
2022-08-18T11:13:49.914Z,2.75
2022-08-18T11:17:40.586Z,2.83
2022-08-18T11:21:28.855Z,2.45
2022-08-18T11:25:03.733Z,2.45
2022-08-18T11:28:34.563Z,3.38
2022-08-18T11:32:09.286Z,2.75
2022-08-18T11:35:51.611Z,2.55
2022-08-18T11:39:18.446Z,2.80
2022-08-18T11:43:13.693Z,3.13
2022-08-18T11:46:47.556Z,2.67
2022-08-18T11:50:27.128Z,2.03
2022-08-18T11:53:59.924Z,3.15
2022-08-18T11:57:32.087Z,2.45
2022-08-18T12:01:02.933Z,1.90
2022-08-18T12:04:42.954Z,2.05
2022-08-18T12:08:50.725Z,2.20
2022-08-18T12:12:18.285Z,2.07
2022-08-18T12:16:12.145Z,1.95
2022-08-18T12:19:38.470Z,2.20
2022-08-18T12:23:13.821Z,2.22
2022-08-18T12:26:47.438Z,1.80
2022-08-18T12:30:16.427Z,1.90
2022-08-18T12:33:48.105Z,1.77
2022-08-18T12:41:22.907Z,2.38
2022-08-18T12:44:49.689Z,2.13
2022-08-18T12:52:06.742Z,2.30
2022-08-18T12:55:35.385Z,2.22
2022-08-18T12:59:05.448Z,2.50
2022-08-18T13:02:32.604Z,2.38
2022-08-18T13:05:58.644Z,2.28
2022-08-18T13:09:48.084Z,2.58
2022-08-18T13:13:20.637Z,2.63
2022-08-18T13:16:55.067Z,2.95
2022-08-18T13:20:21.778Z,3.10
2022-08-18T13:23:47.673Z,3.30
2022-08-18T13:27:23.553Z,3.00
2022-08-18T13:30:50.995Z,3.10
2022-08-18T13:34:19.327Z,3.45
2022-08-18T13:37:46.609Z,3.00
2022-08-18T13:41:15.766Z,3.42
2022-08-18T13:44:43.390Z,3.03
2022-08-18T13:48:20.040Z,3.40
2022-08-18T13:51:49.779Z,3.17
2022-08-18T13:55:21.878Z,3.03
2022-08-18T13:58:53.336Z,3.10
2022-08-18T14:02:19.624Z,3.35
2022-08-18T14:06:01.786Z,3.10
2022-08-18T14:09:36.068Z,3.47
2022-08-18T14:13:20.167Z,2.88
2022-08-18T14:16:48.581Z,3.20
2022-08-18T14:20:50.045Z,3.53
2022-08-18T14:24:36.782Z,3.95
2022-08-18T14:28:04.066Z,3.40
2022-08-18T14:31:30.317Z,3.65
2022-08-18T14:35:31.964Z,3.15
2022-08-18T14:38:50.572Z,3.10
2022-08-18T14:42:32.891Z,3.45
2022-08-18T14:46:09.276Z,3.22
2022-08-18T14:49:42.969Z,2.90
2022-08-18T14:53:15.158Z,3.17
2022-08-18T14:56:41.095Z,3.00
2022-08-18T15:03:42.538Z,3.08
2022-08-18T15:07:10.071Z,3.08
2022-08-18T15:10:39.065Z,3.50
2022-08-18T15:14:05.021Z,3.15
2022-08-18T15:17:35.324Z,3.22
2022-08-18T15:21:34.896Z,3.33
2022-08-18T15:25:23.957Z,3.05
2022-08-18T15:28:50.752Z,2.85
2022-08-18T15:32:18.267Z,2.95
2022-08-18T15:35:44.686Z,3.58
2022-08-18T15:39:11.448Z,3.53
2022-08-18T15:42:43.135Z,3.75
2022-08-18T15:46:09.311Z,3.67
2022-08-18T15:49:41.670Z,3.97
2022-08-18T15:53:11.875Z,4.20
2022-08-18T15:56:39.106Z,4.00
2022-08-18T16:00:12.041Z,3.60
2022-08-18T16:03:39.615Z,4.05
2022-08-18T16:07:06.370Z,3.50
2022-08-18T16:10:37.254Z,3.60
2022-08-18T16:14:05.271Z,4.97
2022-08-18T16:17:32.032Z,3.78
2022-08-18T16:21:04.865Z,3.38
2022-08-18T16:24:30.696Z,3.75
2022-08-18T16:27:58.790Z,4.60
2022-08-18T16:31:26.560Z,4.60
2022-08-18T16:34:53.046Z,5.95
2022-08-18T16:38:19.972Z,7.82
2022-08-18T16:41:46.712Z,6.75
2022-08-18T16:45:13.446Z,8.25
2022-08-18T16:48:39.394Z,8.10
2022-08-18T16:52:06.636Z,7.28
2022-08-18T16:55:32.552Z,6.80
2022-08-18T16:59:16.694Z,6.68
2022-08-18T17:03:01.969Z,5.93
2022-08-18T17:06:28.852Z,5.80
2022-08-18T17:09:55.217Z,5.80
2022-08-18T17:13:21.345Z,4.45
2022-08-18T17:16:53.922Z,4.47
2022-08-18T17:20:21.426Z,4.40
2022-08-18T17:23:47.302Z,4.20
2022-08-18T17:27:35.279Z,4.80
2022-08-18T17:31:05.536Z,8.38
2022-08-18T17:34:36.831Z,8.90
2022-08-18T17:38:09.612Z,7.03
2022-08-18T17:42:00.070Z,6.40
2022-08-18T17:45:26.006Z,5.45
2022-08-18T17:49:11.153Z,5.70
2022-08-18T17:52:52.684Z,6.57
2022-08-18T17:56:40.523Z,6.70
2022-08-18T18:00:15.802Z,7.32
2022-08-18T18:03:44.033Z,6.55
2022-08-18T18:07:27.665Z,6.65
2022-08-18T18:11:10.181Z,6.57
2022-08-18T18:14:39.914Z,6.63
2022-08-18T18:18:18.929Z,7.13
2022-08-18T18:21:58.948Z,7.55
2022-08-18T18:25:34.440Z,8.38
2022-08-18T18:29:21.064Z,8.93
2022-08-18T18:33:20.205Z,9.90
2022-08-18T18:36:48.733Z,10.07
2022-08-18T18:40:28.174Z,9.45
2022-08-18T18:44:06.224Z,9.88
2022-08-18T18:47:58.130Z,7.97
2022-08-18T18:51:58.153Z,7.15
2022-08-18T18:55:56.820Z,6.63
2022-08-18T18:59:54.650Z,7.25
2022-08-18T19:03:50.035Z,6.38
2022-08-18T19:07:20.787Z,7.82
2022-08-18T19:10:59.905Z,6.43
2022-08-18T19:14:34.786Z,7.82
2022-08-18T19:18:24.794Z,7.32
2022-08-18T19:22:04.914Z,7.40
2022-08-18T19:25:54.922Z,6.97
2022-08-18T19:30:01.185Z,12.07
2022-08-18T19:33:50.419Z,8.25
2022-08-18T19:37:40.382Z,8.02
2022-08-18T19:41:14.648Z,7.95
2022-08-18T19:45:29.984Z,6.50
2022-08-18T19:49:04.746Z,6.68
2022-08-18T19:52:45.941Z,6.63
2022-08-18T19:56:15.989Z,6.22
2022-08-18T19:59:50.380Z,6.35
2022-08-18T20:03:53.690Z,6.13
2022-08-18T20:07:52.110Z,5.93
2022-08-18T20:11:42.557Z,6.03
2022-08-18T20:15:18.696Z,5.95
2022-08-18T20:18:57.878Z,6.10
2022-08-18T20:22:45.202Z,5.78
2022-08-18T20:26:34.535Z,5.65
2022-08-18T20:30:21.387Z,6.03
2022-08-18T20:34:24.433Z,5.80
2022-08-18T20:37:51.850Z,5.35
2022-08-18T20:41:43.915Z,5.85
2022-08-18T20:45:34.148Z,5.57
2022-08-18T20:49:24.632Z,6.22
2022-08-18T20:53:01.402Z,5.43
2022-08-18T20:56:43.397Z,5.47
2022-08-18T21:00:15.467Z,5.28
2022-08-18T21:03:49.171Z,5.30
2022-08-18T21:07:36.793Z,5.50
2022-08-18T21:11:21.091Z,5.20
2022-08-18T21:15:03.516Z,5.05
2022-08-18T21:18:29.472Z,5.90
2022-08-18T21:21:59.784Z,5.30
2022-08-18T21:25:36.280Z,6.20
2022-08-18T21:29:07.091Z,6.60
2022-08-18T21:32:36.536Z,5.88
2022-08-18T21:36:18.536Z,7.35
2022-08-18T21:39:59.954Z,5.10
2022-08-18T21:43:41.333Z,4.90
2022-08-18T21:47:20.816Z,4.60
2022-08-18T21:51:00.477Z,4.78
2022-08-18T21:54:34.505Z,5.30
2022-08-18T21:58:40.906Z,5.05
2022-08-18T22:02:20.226Z,4.78
2022-08-18T22:05:57.907Z,4.93
2022-08-18T22:09:45.241Z,5.15
2022-08-18T22:13:47.762Z,5.25
2022-08-18T22:17:29.771Z,5.88
2022-08-18T22:21:37.337Z,6.85
2022-08-18T22:25:11.158Z,6.22
2022-08-18T22:28:42.750Z,6.03
2022-08-18T22:32:08.632Z,5.40
2022-08-18T22:35:34.711Z,5.40
2022-08-18T22:39:01.774Z,4.90
2022-08-18T22:42:32.326Z,4.80
2022-08-18T22:46:02.843Z,4.80
2022-08-18T22:49:30.169Z,4.45
2022-08-18T22:52:56.127Z,4.40
2022-08-18T22:56:34.677Z,3.95
2022-08-18T23:00:03.202Z,4.10
2022-08-18T23:03:29.743Z,4.07
2022-08-18T23:06:57.513Z,3.88
2022-08-18T23:10:25.200Z,4.22
2022-08-18T23:13:51.175Z,4.50
2022-08-18T23:17:17.057Z,4.32
2022-08-18T23:20:43.416Z,4.70
2022-08-18T23:24:10.373Z,4.32
2022-08-18T23:27:38.626Z,4.43
2022-08-18T23:31:04.668Z,4.35
2022-08-18T23:34:30.538Z,4.90
2022-08-18T23:37:58.603Z,5.65
2022-08-18T23:41:24.780Z,5.00
2022-08-18T23:44:50.761Z,4.95
2022-08-18T23:48:18.194Z,5.38
2022-08-18T23:51:46.322Z,5.10
2022-08-18T23:55:14.846Z,4.60
2022-08-18T23:58:40.708Z,4.80
